Time;durP1;ratioP1;P1;durP2;ratioP2;P2;SDS_P1;SDS_P2;PMS_P1;PMS_P2;Temp;Humidity;BMP_temperature;BMP_pressure;BME280_temperature;BME280_humidity;BME280_pressure;Samples;Min_cycle;Max_cycle;Signal;HPM_P1;HPM_P2
2021/08/14 00:01:26;;;;;;;18.85;6.70;;;;;;;19.32;64.41;102095.22;5032988;28;20558;-55
2021/08/14 00:03:54;;;;;;;21.08;6.95;;;;;;;19.29;64.44;102104.09;5033715;28;20038;-53
2021/08/14 00:06:21;;;;;;;17.38;6.50;;;;;;;19.25;64.51;102100.28;5033595;28;20084;-55
2021/08/14 00:08:49;;;;;;;15.63;6.25;;;;;;;19.22;64.82;102103.63;5038294;28;20541;-59
2021/08/14 00:11:17;;;;;;;18.30;6.78;;;;;;;19.22;65.07;102098.94;5053660;28;20041;-58
2021/08/14 00:13:44;;;;;;;13.32;5.95;;;;;;;19.22;64.82;102095.34;5035808;28;20041;-56
2021/08/14 00:16:12;;;;;;;16.65;6.40;;;;;;;19.22;64.90;102087.03;5033396;28;20041;-53
2021/08/14 00:18:39;;;;;;;18.58;6.78;;;;;;;19.22;64.69;102089.81;5033271;28;20121;-58
2021/08/14 00:21:07;;;;;;;17.55;6.78;;;;;;;19.21;64.83;102093.69;5033352;28;20037;-55
2021/08/14 00:23:35;;;;;;;18.83;6.00;;;;;;;19.21;64.66;102093.69;5033113;28;20048;-58
2021/08/14 00:26:02;;;;;;;18.17;6.10;;;;;;;19.18;64.92;102094.31;5033693;28;20037;-57
2021/08/14 00:28:30;;;;;;;22.83;7.30;;;;;;;19.16;64.94;102081.59;5032631;28;20121;-57
2021/08/14 00:30:58;;;;;;;20.48;6.47;;;;;;;19.15;64.81;102085.47;5032972;28;20396;-59
2021/08/14 00:33:25;;;;;;;13.63;6.00;;;;;;;19.13;65.01;102084.94;5033181;28;20080;-60
2021/08/14 00:35:53;;;;;;;19.30;7.10;;;;;;;19.15;64.99;102074.44;5033180;28;20076;-59
2021/08/14 00:38:21;;;;;;;19.35;6.82;;;;;;;19.15;65.04;102079.97;5032947;28;20056;-59
2021/08/14 00:40:48;;;;;;;16.25;6.35;;;;;;;19.15;65.14;102074.44;5032707;28;20598;-59
2021/08/14 00:43:16;;;;;;;14.60;6.25;;;;;;;19.13;65.20;102079.44;5031954;28;20060;-60
2021/08/14 00:45:45;;;;;;;16.17;6.18;;;;;;;19.11;64.92;102086.38;5033073;28;20041;-60
2021/08/14 00:48:33;;;;;;;12.50;5.28;;;;;;;19.08;65.29;102085.00;5032657;28;20049;-59
2021/08/14 00:51:00;;;;;;;21.08;6.50;;;;;;;19.08;65.11;102075.91;5031802;28;20045;-59
2021/08/14 00:53:28;;;;;;;17.27;6.65;;;;;;;19.06;65.23;102075.38;5032599;28;20045;-58
2021/08/14 00:55:56;;;;;;;18.67;6.82;;;;;;;19.03;65.56;102074.03;5032639;28;20132;-59
2021/08/14 00:58:24;;;;;;;16.33;6.18;;;;;;;19.00;65.33;102088.44;5030910;28;20043;-57
2021/08/14 01:00:52;;;;;;;20.45;6.28;;;;;;;18.99;65.52;102084.00;5032826;28;20053;-58
2021/08/14 01:03:29;;;;;;;17.95;6.07;;;;;;;18.98;65.76;102085.16;5032231;28;20069;-57
2021/08/14 01:05:56;;;;;;;16.38;6.60;;;;;;;18.99;65.38;102085.97;5031357;28;20042;-60
2021/08/14 01:08:24;;;;;;;24.88;6.40;;;;;;;18.99;65.56;102083.19;5032944;28;20045;-59
2021/08/14 01:10:52;;;;;;;14.25;5.68;;;;;;;18.98;65.49;102085.16;5038609;28;20056;-58
2021/08/14 01:13:20;;;;;;;16.83;6.45;;;;;;;18.97;65.66;102083.47;5039960;28;20076;-58
2021/08/14 01:15:51;;;;;;;16.35;6.00;;;;;;;18.95;65.49;102085.72;5032256;28;20045;-59
2021/08/14 01:18:19;;;;;;;18.20;5.65;;;;;;;18.94;65.46;102079.38;5032399;28;20045;-59
2021/08/14 01:20:48;;;;;;;17.92;6.05;;;;;;;18.92;65.62;102084.38;5032177;28;20045;-60
2021/08/14 01:23:16;;;;;;;16.42;6.45;;;;;;;18.90;65.62;102078.31;5032489;28;20492;-57
2021/08/14 01:25:45;;;;;;;18.35;6.55;;;;;;;18.90;65.48;102083.00;5031940;28;20053;-58
2021/08/14 01:28:14;;;;;;;17.52;6.50;;;;;;;18.85;65.53;102075.59;5032163;28;20037;-56
2021/08/14 01:30:43;;;;;;;16.38;5.85;;;;;;;18.74;65.95;102076.81;5032075;28;20045;-59
2021/08/14 01:33:13;;;;;;;15.80;5.97;;;;;;;18.70;66.26;102078.50;5032164;28;20045;-57
2021/08/14 01:35:45;;;;;;;17.33;5.97;;;;;;;18.68;66.13;102077.97;5032105;28;20046;-58
2021/08/14 01:38:12;;;;;;;17.98;5.38;;;;;;;18.67;66.15;102073.59;5038545;28;20056;-58
2021/08/14 01:40:40;;;;;;;20.92;7.25;;;;;;;18.61;66.43;102070.03;5039243;28;20038;-58
2021/08/14 01:43:08;;;;;;;17.23;6.85;;;;;;;18.57;66.28;102062.63;5031640;28;20041;-59
2021/08/14 01:45:36;;;;;;;16.67;6.30;;;;;;;18.53;66.57;102059.66;5032310;28;20076;-60
2021/08/14 01:48:04;;;;;;;14.40;5.60;;;;;;;18.48;66.83;102060.50;5031785;28;20084;-59
2021/08/14 01:50:31;;;;;;;19.63;6.53;;;;;;;18.51;66.77;102059.09;5032370;28;20046;-60
2021/08/14 01:52:59;;;;;;;16.15;6.57;;;;;;;18.55;66.70;102064.88;5031871;28;20053;-60
2021/08/14 01:55:27;;;;;;;16.00;6.53;;;;;;;18.52;66.53;102066.28;5031771;28;20042;-60
2021/08/14 01:57:54;;;;;;;17.08;5.57;;;;;;;18.47;66.89;102052.50;5031799;28;20042;-60
2021/08/14 02:00:22;;;;;;;18.08;6.40;;;;;;;18.46;66.96;102050.88;5030432;28;20065;-57
2021/08/14 02:02:49;;;;;;;10.50;4.32;;;;;;;18.50;67.13;102046.44;5032110;28;20060;-58
2021/08/14 02:05:18;;;;;;;14.32;5.30;;;;;;;18.54;67.14;102047.47;5031391;28;20042;-60
2021/08/14 02:07:46;;;;;;;13.10;5.43;;;;;;;18.58;66.89;102043.03;5031842;28;20042;-60
2021/08/14 02:10:13;;;;;;;14.38;5.22;;;;;;;18.59;66.73;102032.78;5031415;28;20038;-59
2021/08/14 02:12:41;;;;;;;13.25;5.25;;;;;;;18.58;66.72;102031.97;5032111;28;20468;-60
2021/08/14 02:15:09;;;;;;;16.60;5.50;;;;;;;18.56;66.53;102039.72;5031855;28;20107;-59
2021/08/14 02:17:37;;;;;;;12.82;5.30;;;;;;;18.55;66.76;102038.09;5034523;28;20515;-59
2021/08/14 02:20:05;;;;;;;13.50;5.55;;;;;;;18.52;66.93;102042.25;5034405;28;20046;-58
2021/08/14 02:22:32;;;;;;;15.40;5.45;;;;;;;18.51;66.99;102037.03;5035535;28;20053;-55
2021/08/14 02:25:00;;;;;;;21.27;6.68;;;;;;;18.51;67.01;102031.50;5035232;28;20041;-60
2021/08/14 02:27:32;;;;;;;15.50;5.63;;;;;;;18.51;67.01;102034.25;5041754;28;20107;-59
2021/08/14 02:29:59;;;;;;;13.50;5.53;;;;;;;18.52;67.06;102033.97;5042674;28;20053;-59
2021/08/14 02:32:27;;;;;;;14.52;5.60;;;;;;;18.49;66.77;102026.25;5035083;28;20487;-58
2021/08/14 02:34:55;;;;;;;17.08;6.07;;;;;;;18.46;67.15;102029.63;5035202;28;20037;-59
2021/08/14 02:37:22;;;;;;;21.48;6.32;;;;;;;18.44;67.16;102025.50;5035308;28;20067;-58
2021/08/14 02:39:50;;;;;;;17.05;6.30;;;;;;;18.44;67.19;102028.25;5034722;28;20044;-58
2021/08/14 02:42:17;;;;;;;12.93;5.53;;;;;;;18.43;67.14;102018.34;5035027;28;20504;-59
2021/08/14 02:44:45;;;;;;;17.00;5.55;;;;;;;18.43;67.29;102023.88;5035180;28;20064;-59
2021/08/14 02:47:12;;;;;;;14.40;5.18;;;;;;;18.40;67.26;102019.75;5035213;28;20041;-57
2021/08/14 02:49:40;;;;;;;12.07;5.25;;;;;;;18.37;67.42;102020.31;5034917;28;20407;-58
2021/08/14 02:52:07;;;;;;;13.38;5.60;;;;;;;18.36;67.42;102015.13;5035059;28;20040;-59
2021/08/14 02:54:35;;;;;;;16.13;6.03;;;;;;;18.36;67.32;102018.69;5034629;28;20044;-59
2021/08/14 02:57:03;;;;;;;17.77;6.55;;;;;;;18.35;67.40;102016.22;5035035;28;20458;-59
2021/08/14 02:59:31;;;;;;;17.92;6.88;;;;;;;18.34;67.34;102022.84;5035125;28;20033;-60
2021/08/14 03:01:58;;;;;;;13.00;5.25;;;;;;;18.33;67.25;102019.28;5034782;28;20041;-59
2021/08/14 03:04:26;;;;;;;13.32;5.25;;;;;;;18.33;67.34;102018.44;5034571;28;20063;-59
2021/08/14 03:06:57;;;;;;;14.77;5.70;;;;;;;18.31;67.14;102016.00;5034195;28;20052;-59
2021/08/14 03:09:24;;;;;;;11.98;5.22;;;;;;;18.29;67.31;102019.03;5034635;28;20076;-60
2021/08/14 03:11:52;;;;;;;15.82;6.18;;;;;;;18.27;67.54;102014.91;5034784;28;20099;-59
2021/08/14 03:14:19;;;;;;;17.42;5.80;;;;;;;18.24;67.30;102016.31;5034857;28;20049;-59
2021/08/14 03:16:47;;;;;;;17.88;5.72;;;;;;;18.23;67.53;102016.59;5034594;28;20045;-58
2021/08/14 03:19:15;;;;;;;13.45;5.57;;;;;;;18.19;67.72;102021.88;5034296;28;20385;-58
2021/08/14 03:21:42;;;;;;;13.90;6.05;;;;;;;18.15;67.65;102018.06;5034128;28;20060;-60
2021/08/14 03:24:10;;;;;;;12.60;5.47;;;;;;;18.15;67.68;102023.56;5034228;28;20048;-56
2021/08/14 03:26:37;;;;;;;14.63;6.20;;;;;;;18.12;67.93;102013.13;5034328;28;20388;-61
2021/08/14 03:29:05;;;;;;;13.98;5.65;;;;;;;18.10;67.70;102018.09;5033924;28;20515;-59
2021/08/14 03:31:32;;;;;;;16.25;5.90;;;;;;;18.12;67.69;102018.66;5034138;28;20049;-59
2021/08/14 03:34:00;;;;;;;14.10;5.57;;;;;;;18.12;67.66;102013.13;5047767;28;20045;-59
2021/08/14 03:36:28;;;;;;;16.33;5.75;;;;;;;18.10;67.64;102015.34;5034209;28;20052;-60
2021/08/14 03:38:55;;;;;;;12.70;6.10;;;;;;;18.10;67.73;101999.63;5033863;28;20037;-58
2021/08/14 03:41:23;;;;;;;16.73;6.85;;;;;;;18.10;67.44;101996.03;5033964;28;20049;-59
2021/08/14 03:43:50;;;;;;;16.60;6.45;;;;;;;18.08;67.42;101995.50;5034003;28;20148;-58
2021/08/14 03:46:18;;;;;;;11.80;5.35;;;;;;;18.06;67.32;102003.25;5033963;28;20041;-60
2021/08/14 03:48:45;;;;;;;12.93;5.78;;;;;;;18.06;67.43;101995.81;5034021;28;20072;-60
2021/08/14 03:51:13;;;;;;;17.88;5.57;;;;;;;18.05;67.17;102007.13;5033786;28;20116;-60
2021/08/14 03:53:41;;;;;;;12.82;5.72;;;;;;;18.03;67.32;102010.16;5033425;28;20045;-60
2021/08/14 03:56:08;;;;;;;16.98;6.57;;;;;;;18.02;67.15;102010.47;5034012;28;20053;-59
2021/08/14 03:58:36;;;;;;;13.90;5.57;;;;;;;18.00;66.92;102018.22;5040130;28;20045;-60
2021/08/14 04:01:06;;;;;;;12.70;5.05;;;;;;;17.97;66.88;102021.56;5041102;28;20045;-59
2021/08/14 04:03:34;;;;;;;14.93;5.40;;;;;;;17.95;66.93;102026.53;5033529;28;20037;-60
2021/08/14 04:06:02;;;;;;;13.73;5.90;;;;;;;17.91;66.75;102022.69;5033185;28;20042;-59
2021/08/14 04:08:29;;;;;;;16.15;6.10;;;;;;;17.86;67.21;102021.63;5033551;28;20044;-60
2021/08/14 04:10:57;;;;;;;13.55;5.93;;;;;;;17.83;67.24;102022.19;5033726;28;20373;-60
2021/08/14 04:13:25;;;;;;;14.85;5.97;;;;;;;17.83;67.08;102022.19;5033527;28;20041;-59
2021/08/14 04:15:53;;;;;;;13.98;5.82;;;;;;;17.81;67.20;102013.38;5033742;28;20048;-61
2021/08/14 04:18:21;;;;;;;13.70;5.63;;;;;;;17.81;67.22;102013.38;5033590;28;20560;-59
2021/08/14 04:20:48;;;;;;;16.25;5.63;;;;;;;17.81;67.08;102007.06;5032601;28;20033;-60
2021/08/14 04:23:16;;;;;;;12.93;6.00;;;;;;;17.80;66.69;102022.78;5033530;28;20041;-57
2021/08/14 04:25:48;;;;;;;13.75;6.22;;;;;;;17.80;66.76;102019.19;5039319;28;20064;-59
2021/08/14 04:28:15;;;;;;;16.50;7.18;;;;;;;17.78;66.73;102022.22;5040968;28;20579;-60
2021/08/14 04:30:43;;;;;;;15.07;6.40;;;;;;;17.78;66.49;102019.44;5033017;28;20038;-58
2021/08/14 04:33:11;;;;;;;12.05;5.68;;;;;;;17.80;66.90;102025.53;5032966;28;20045;-60
2021/08/14 04:35:38;;;;;;;13.35;5.45;;;;;;;17.81;66.87;102016.16;5032443;28;20049;-59
2021/08/14 04:38:06;;;;;;;13.40;5.88;;;;;;;17.79;66.43;102015.56;5033034;28;20116;-58
2021/08/14 04:40:33;;;;;;;14.98;5.90;;;;;;;17.78;66.31;102018.63;5032459;28;20045;-60
2021/08/14 04:43:01;;;;;;;17.20;6.20;;;;;;;17.75;66.41;102014.53;5032645;28;20052;-58
2021/08/14 04:45:28;;;;;;;16.60;6.40;;;;;;;17.71;66.23;102016.19;5032816;28;20140;-58
2021/08/14 04:47:56;;;;;;;14.02;5.43;;;;;;;17.72;66.74;102009.56;5034607;28;20032;-58
2021/08/14 04:50:23;;;;;;;15.32;5.65;;;;;;;17.72;66.58;102015.06;5030968;28;20459;-59
2021/08/14 04:52:51;;;;;;;14.02;6.20;;;;;;;17.72;66.72;102004.03;5034644;28;20053;-57
2021/08/14 04:55:19;;;;;;;14.90;6.20;;;;;;;17.72;66.45;102004.03;5033691;28;20042;-58
2021/08/14 04:57:47;;;;;;;11.75;4.97;;;;;;;17.69;66.36;102010.16;5034082;28;20049;-57
2021/08/14 05:00:15;;;;;;;12.13;5.13;;;;;;;17.71;66.51;102007.94;5033759;28;20095;-54
2021/08/14 05:02:43;;;;;;;12.70;5.40;;;;;;;17.74;66.66;102007.34;5033346;28;20227;-55
2021/08/14 05:05:11;;;;;;;13.60;5.82;;;;;;;17.78;66.23;102000.16;5032564;28;20041;-58
2021/08/14 05:07:38;;;;;;;14.15;5.70;;;;;;;17.78;66.00;102002.91;5033549;28;20056;-58
2021/08/14 05:10:06;;;;;;;14.88;6.10;;;;;;;17.79;66.30;101998.22;5034561;28;20407;-58
2021/08/14 05:12:34;;;;;;;15.15;5.95;;;;;;;17.79;66.04;101999.03;5028689;28;20416;-58
2021/08/14 05:15:01;;;;;;;15.73;5.93;;;;;;;17.77;65.81;102011.47;5037993;28;20117;-56
2021/08/14 05:17:29;;;;;;;14.73;5.72;;;;;;;17.69;65.96;102010.16;5033422;28;20095;-56
2021/08/14 05:19:57;;;;;;;14.38;5.43;;;;;;;17.65;65.82;102014.56;5045398;28;20091;-56
2021/08/14 05:22:24;;;;;;;13.95;5.53;;;;;;;17.65;66.37;102020.09;5040752;28;20503;-58
2021/08/14 05:24:52;;;;;;;17.33;5.93;;;;;;;17.67;66.03;102017.88;5046328;28;20040;-57
2021/08/14 05:27:19;;;;;;;11.95;5.60;;;;;;;17.68;66.40;102014.03;5041644;28;20073;-56
2021/08/14 05:29:47;;;;;;;14.98;5.82;;;;;;;17.74;66.48;102017.56;5045246;28;20033;-56
2021/08/14 05:32:15;;;;;;;16.73;5.80;;;;;;;17.73;66.25;102022.25;5042359;28;20049;-55
2021/08/14 05:34:42;;;;;;;16.38;5.50;;;;;;;17.74;66.42;102018.38;5031481;28;20053;-58
2021/08/14 05:37:10;;;;;;;12.38;5.18;;;;;;;17.72;66.00;102009.56;5032042;28;20068;-57
2021/08/14 05:39:38;;;;;;;15.38;6.13;;;;;;;17.78;66.23;102018.63;5030415;28;20535;-55
2021/08/14 05:42:06;;;;;;;15.88;5.65;;;;;;;17.80;65.88;102006.25;5031804;28;20042;-58
2021/08/14 05:44:34;;;;;;;14.43;5.88;;;;;;;17.82;66.21;102008.69;5033525;28;20057;-58
2021/08/14 05:47:01;;;;;;;19.40;6.97;;;;;;;17.81;65.94;101999.59;5031614;28;20056;-58
2021/08/14 05:49:29;;;;;;;13.23;5.60;;;;;;;17.83;66.10;102002.09;5031354;28;20037;-57
2021/08/14 05:51:59;;;;;;;13.82;5.63;;;;;;;17.84;66.21;102001.78;5034736;28;20496;-51
2021/08/14 05:54:26;;;;;;;14.45;5.80;;;;;;;17.86;66.77;102007.00;5042981;28;20052;-56
2021/08/14 05:56:54;;;;;;;14.90;5.65;;;;;;;17.84;66.20;102004.53;5043175;28;20049;-57
2021/08/14 05:59:22;;;;;;;14.32;5.82;;;;;;;17.80;66.40;102006.25;5047528;28;20047;-56
2021/08/14 06:01:49;;;;;;;16.75;6.72;;;;;;;17.81;66.56;102013.38;5040079;28;20042;-57
2021/08/14 06:04:17;;;;;;;12.35;5.57;;;;;;;17.79;66.24;102006.47;5037825;28;20041;-53
2021/08/14 06:06:45;;;;;;;19.42;6.43;;;;;;;17.83;66.70;102005.66;5043463;28;20407;-59
2021/08/14 06:09:13;;;;;;;15.90;6.07;;;;;;;17.82;66.58;102015.06;5041727;28;20041;-58
2021/08/14 06:11:41;;;;;;;16.90;5.95;;;;;;;17.78;66.30;102013.13;5045083;28;20139;-59
2021/08/14 06:14:08;;;;;;;16.40;7.00;;;;;;;17.73;66.34;102022.25;5041211;28;20112;-56
2021/08/14 06:16:36;;;;;;;13.50;5.57;;;;;;;17.83;66.66;102013.94;5044221;28;20045;-58
2021/08/14 06:19:04;;;;;;;23.77;7.13;;;;;;;17.75;66.29;102017.28;5040871;28;20037;-58
2021/08/14 06:21:32;;;;;;;18.58;6.55;;;;;;;17.72;66.64;102020.59;5044985;28;20045;-58
2021/08/14 06:23:59;;;;;;;16.15;5.93;;;;;;;17.76;67.22;102018.09;5041438;28;20029;-57
2021/08/14 06:26:27;;;;;;;17.52;7.25;;;;;;;17.73;66.52;102011.22;5043500;28;20106;-59
2021/08/14 06:28:55;;;;;;;16.05;7.30;;;;;;;17.68;66.75;102017.59;5043301;28;20143;-59
2021/08/14 06:31:22;;;;;;;18.65;6.13;;;;;;;17.70;66.98;102011.78;5041085;28;20048;-59
2021/08/14 06:33:51;;;;;;;13.65;6.10;;;;;;;17.70;67.21;102006.25;5039077;28;20056;-58
2021/08/14 06:36:18;;;;;;;13.65;5.68;;;;;;;17.75;67.18;102020.03;5035187;28;20041;-59
2021/08/14 06:38:46;;;;;;;15.20;5.93;;;;;;;17.77;67.16;102014.22;5035156;28;20049;-58
2021/08/14 06:41:13;;;;;;;19.23;6.85;;;;;;;17.70;67.11;102017.28;5035122;28;20033;-59
2021/08/14 06:43:41;;;;;;;18.92;7.45;;;;;;;17.65;67.46;102014.56;5036593;28;20029;-56
2021/08/14 06:46:09;;;;;;;24.75;8.02;;;;;;;17.64;67.55;102019.28;5045442;28;20064;-58
2021/08/14 06:48:36;;;;;;;20.25;7.55;;;;;;;17.67;67.66;102023.38;5041822;28;20049;-58
2021/08/14 06:51:04;;;;;;;23.83;7.55;;;;;;;17.71;67.78;102018.13;5047041;28;20041;-59
2021/08/14 06:53:32;;;;;;;14.73;6.03;;;;;;;17.72;67.79;102028.84;5041667;28;20034;-60
2021/08/14 06:55:59;;;;;;;23.10;9.10;;;;;;;17.91;67.68;102020.75;5046596;28;20033;-60
2021/08/14 06:58:27;;;;;;;15.85;7.15;;;;;;;17.85;67.68;102014.47;5042079;28;20045;-60
2021/08/14 07:00:55;;;;;;;20.63;7.32;;;;;;;17.99;68.06;102013.78;5044737;28;20070;-59
2021/08/14 07:03:23;;;;;;;20.63;7.35;;;;;;;18.03;67.70;102012.09;5042489;28;20075;-61
2021/08/14 07:05:51;;;;;;;17.88;6.40;;;;;;;18.18;67.55;102011.94;5042903;28;20041;-59
2021/08/14 07:08:18;;;;;;;19.42;6.70;;;;;;;18.19;67.33;102001.75;5044293;28;20507;-60
2021/08/14 07:10:46;;;;;;;22.13;8.02;;;;;;;18.10;67.62;101996.84;5041489;28;20044;-60
2021/08/14 07:13:13;;;;;;;21.13;8.32;;;;;;;18.04;67.99;102006.31;5045647;28;20037;-61
2021/08/14 07:15:41;;;;;;;15.23;6.10;;;;;;;18.07;68.35;102013.19;5040606;28;20495;-59
2021/08/14 07:18:09;;;;;;;25.88;9.38;;;;;;;18.02;68.87;102018.75;5046537;28;20041;-61
2021/08/14 07:20:36;;;;;;;30.15;9.13;;;;;;;17.98;69.16;102007.44;5041415;28;20061;-58
2021/08/14 07:23:04;;;;;;;22.95;8.77;;;;;;;17.99;69.24;102019.31;5043596;28;20376;-60
2021/08/14 07:25:32;;;;;;;21.90;8.88;;;;;;;17.91;69.36;102017.19;5042646;28;20496;-61
2021/08/14 07:27:59;;;;;;;26.92;9.55;;;;;;;17.84;69.85;102010.03;5043174;28;20053;-59
2021/08/14 07:30:27;;;;;;;23.40;8.73;;;;;;;17.83;70.05;102007.59;5043947;28;20049;-58
2021/08/14 07:32:54;;;;;;;31.80;10.18;;;;;;;17.86;69.89;102005.06;5040594;28;20057;-59
2021/08/14 07:35:23;;;;;;;28.77;10.07;;;;;;;17.91;69.95;102006.16;5034222;28;20041;-59
2021/08/14 07:37:51;;;;;;;29.55;9.82;;;;;;;17.91;69.92;102006.16;5034287;28;20058;-55
2021/08/14 07:40:21;;;;;;;27.98;9.32;;;;;;;17.87;70.23;102012.25;5042963;28;20399;-59
2021/08/14 07:42:49;;;;;;;22.90;7.57;;;;;;;17.84;70.45;102012.81;5037325;28;20041;-59
2021/08/14 07:45:17;;;;;;;20.77;8.40;;;;;;;17.90;70.46;102012.78;5033468;28;20058;-60
2021/08/14 07:47:50;;;;;;;24.38;9.32;;;;;;;17.89;70.98;102014.69;5033915;28;20124;-60
2021/08/14 07:50:19;;;;;;;23.52;9.30;;;;;;;17.87;71.12;102020.50;5033936;28;20547;-58
2021/08/14 07:52:48;;;;;;;33.20;10.05;;;;;;;17.85;71.44;102017.22;5033528;28;20056;-56
2021/08/14 07:55:16;;;;;;;30.27;10.38;;;;;;;17.95;70.99;102007.22;5033629;28;20041;-57
2021/08/14 07:57:44;;;;;;;31.48;10.30;;;;;;;17.97;71.33;102010.53;5033672;28;20408;-58
2021/08/14 08:00:15;;;;;;;28.55;9.57;;;;;;;18.08;71.05;102012.88;5033186;28;20034;-57
2021/08/14 08:02:43;;;;;;;23.58;9.40;;;;;;;18.09;70.80;102017.28;5033393;28;20119;-58
2021/08/14 08:05:12;;;;;;;28.40;9.75;;;;;;;18.06;71.06;102015.13;5033105;28;20038;-57
2021/08/14 08:07:45;;;;;;;26.08;9.30;;;;;;;18.08;71.00;102017.56;5033537;28;20509;-57
2021/08/14 08:10:15;;;;;;;24.90;10.07;;;;;;;18.07;71.08;102008.47;5033226;28;20052;-54
2021/08/14 08:12:43;;;;;;;31.63;11.60;;;;;;;18.23;70.26;102003.66;5033047;28;20052;-56
2021/08/14 08:15:12;;;;;;;24.60;9.55;;;;;;;18.24;70.58;102007.22;5032341;28;20072;-56
2021/08/14 08:17:40;;;;;;;24.35;9.13;;;;;;;18.22;70.53;102006.69;5033521;28;20049;-56
2021/08/14 08:20:09;;;;;;;27.08;10.10;;;;;;;18.29;70.26;102008.00;5032955;28;20057;-58
2021/08/14 08:22:37;;;;;;;24.77;9.38;;;;;;;18.28;70.78;102009.13;5033055;28;20408;-54
2021/08/14 08:25:05;;;;;;;22.90;9.52;;;;;;;18.33;70.30;101997.22;5032971;28;20037;-57
2021/08/14 08:27:36;;;;;;;22.30;9.50;;;;;;;18.37;70.05;102000.19;5032815;28;20048;-55
2021/08/14 08:30:06;;;;;;;32.10;10.90;;;;;;;18.37;70.45;102000.19;5040920;28;20395;-60
2021/08/14 08:32:33;;;;;;;28.95;10.85;;;;;;;18.33;70.68;101999.97;5041989;28;20053;-57
2021/08/14 08:35:01;;;;;;;27.45;8.98;;;;;;;18.39;70.46;102006.25;5032932;28;20091;-61
2021/08/14 08:37:29;;;;;;;24.42;9.45;;;;;;;18.50;69.99;101999.50;5038924;28;20044;-60
2021/08/14 08:39:57;;;;;;;27.17;10.20;;;;;;;18.56;68.74;101994.75;5042813;28;20048;-59
2021/08/14 08:42:24;;;;;;;28.98;10.70;;;;;;;18.56;68.91;102003.84;5047772;28;20041;-58
2021/08/14 08:44:52;;;;;;;33.70;10.23;;;;;;;18.56;68.80;101998.31;5042553;28;20053;-58
2021/08/14 08:47:20;;;;;;;26.42;9.25;;;;;;;18.57;68.77;102004.66;5048003;28;20056;-58
2021/08/14 08:49:53;;;;;;;23.60;8.70;;;;;;;18.62;68.15;101999.09;5044560;28;20041;-57
2021/08/14 08:52:21;;;;;;;21.08;7.80;;;;;;;18.66;67.74;101995.44;5048275;28;20407;-58
2021/08/14 08:54:50;;;;;;;25.67;8.05;;;;;;;18.69;67.45;101989.34;5044868;28;20040;-59
2021/08/14 08:57:18;;;;;;;19.70;7.25;;;;;;;18.75;67.61;101987.34;5046381;28;20049;-58
2021/08/14 08:59:46;;;;;;;22.65;7.10;;;;;;;18.83;67.51;101983.97;5046562;28;20049;-59
2021/08/14 09:02:34;;;;;;;17.75;7.45;;;;;;;18.88;67.13;101983.06;5044600;28;20502;-60
2021/08/14 09:05:11;;;;;;;22.85;8.45;;;;;;;18.88;66.87;101983.06;5044248;28;20064;-60
2021/08/14 09:07:38;;;;;;;;;;;;;;;18.90;66.80;101980.81;5047756;28;20051;-59
2021/08/14 09:10:09;;;;;;;27.20;12.75;;;;;;;18.83;66.04;101975.69;5044617;28;19929;-58
2021/08/14 09:12:41;;;;;;;27.60;12.70;;;;;;;18.81;65.89;101988.97;5044508;28;20422;-60
2021/08/14 09:15:17;;;;;;;32.35;12.60;;;;;;;18.83;65.90;101986.75;5044919;28;20033;-61
2021/08/14 09:17:45;;;;;;;;;;;;;;;18.85;65.00;101990.00;5046896;28;20049;-60
2021/08/14 09:20:13;;;;;;;27.88;13.98;;;;;;;18.87;65.30;101990.53;5045141;28;19925;-60
2021/08/14 09:22:58;;;;;;;23.27;10.85;;;;;;;18.94;65.44;101991.00;5044839;28;20041;-58
2021/08/14 09:25:26;;;;;;;33.50;17.00;;;;;;;18.97;65.74;101989.56;5043349;28;20041;-58
2021/08/14 09:27:55;;;;;;;36.70;17.60;;;;;;;18.97;66.23;101986.81;5032778;28;20381;-56
2021/08/14 09:30:42;;;;;;;32.10;18.33;;;;;;;19.00;66.75;101993.69;5045410;28;20048;-59
2021/08/14 09:33:11;;;;;;;35.15;17.08;;;;;;;19.01;66.60;101990.63;5040235;28;20033;-57
2021/08/14 09:35:39;;;;;;;35.33;17.83;;;;;;;19.02;66.39;101985.91;5031989;28;20385;-59
2021/08/14 09:38:09;;;;;;;37.85;19.85;;;;;;;19.06;67.27;101987.78;5031965;28;20049;-60
2021/08/14 09:40:45;;;;;;;38.08;22.38;;;;;;;19.03;67.55;101987.59;5031680;28;20115;-59
2021/08/14 09:43:14;;;;;;;39.28;21.55;;;;;;;19.00;67.20;101993.69;5032242;28;20046;-60
2021/08/14 09:45:54;;;;;;;40.00;20.95;;;;;;;19.01;67.12;101990.63;5032223;28;20049;-58
2021/08/14 09:48:24;;;;;;;38.50;21.23;;;;;;;19.02;66.81;101986.75;5031727;28;20050;-60
2021/08/14 09:50:52;;;;;;;29.20;14.98;;;;;;;19.09;66.92;101997.44;5031885;28;20053;-60
2021/08/14 09:53:22;;;;;;;32.25;19.92;;;;;;;19.10;66.15;101997.16;5031938;28;20057;-60
2021/08/14 09:56:05;;;;;;;37.42;21.30;;;;;;;19.13;65.86;101998.50;5014017;28;20037;-60
2021/08/14 09:58:33;;;;;;;30.65;18.40;;;;;;;19.18;65.74;102000.38;5031749;28;20056;-58
2021/08/14 10:01:02;;;;;;;35.00;19.13;;;;;;;19.23;65.57;102003.06;5030455;28;20053;-59
2021/08/14 10:03:31;;;;;;;36.78;18.65;;;;;;;19.25;65.18;101989.75;5031875;28;20049;-59
2021/08/14 10:06:01;;;;;;;36.83;21.55;;;;;;;19.26;65.45;101996.91;5031861;28;20069;-61
2021/08/14 10:08:30;;;;;;;42.47;23.35;;;;;;;19.27;65.16;101995.81;5031248;28;20407;-58
2021/08/14 10:10:58;;;;;;;40.53;24.20;;;;;;;19.26;65.30;101996.91;5031999;28;20042;-60
2021/08/14 10:13:26;;;;;;;39.65;24.80;;;;;;;19.26;65.58;101996.91;5031874;28;20074;-57
2021/08/14 10:15:54;;;;;;;42.30;23.58;;;;;;;19.28;65.93;101997.44;5031796;28;20103;-60
2021/08/14 10:18:22;;;;;;;44.20;26.25;;;;;;;19.30;66.22;101995.22;5031684;28;20447;-60
2021/08/14 10:20:49;;;;;;;43.60;25.60;;;;;;;19.34;65.88;101999.03;5031457;28;20038;-59
2021/08/14 10:23:24;;;;;;;51.30;28.20;;;;;;;19.34;66.53;101993.50;5031318;28;20053;-59
2021/08/14 10:26:14;;;;;;;50.60;29.70;;;;;;;19.31;66.33;101997.69;5031575;28;20037;-60
2021/08/14 10:28:46;;;;;;;31.30;19.60;;;;;;;19.35;66.54;101992.38;5030372;28;20034;-59
2021/08/14 10:31:32;;;;;;;50.75;30.20;;;;;;;19.40;66.93;102003.34;5031388;28;20076;-60
2021/08/14 10:34:20;;;;;;;49.72;30.20;;;;;;;19.40;67.33;102003.34;5031365;28;20041;-58
2021/08/14 10:36:48;;;;;;;49.13;27.65;;;;;;;19.43;67.09;102002.75;5027264;28;20060;-60
2021/08/14 10:39:25;;;;;;;36.50;26.10;;;;;;;19.48;67.41;101999.09;5034858;28;20042;-60
2021/08/14 10:42:01;;;;;;;39.35;26.52;;;;;;;19.51;67.80;101999.31;5042644;28;20047;-58
2021/08/14 10:44:40;;;;;;;45.58;28.13;;;;;;;19.51;67.87;102002.09;5038721;28;20544;-60
2021/08/14 10:47:33;;;;;;;42.10;27.13;;;;;;;19.53;68.25;101997.09;5035331;28;20124;-59
2021/08/14 10:50:01;;;;;;;44.25;27.08;;;;;;;19.54;67.91;101993.19;5033731;28;20054;-57
2021/08/14 10:52:33;;;;;;;45.55;27.95;;;;;;;19.54;68.35;101997.91;5034463;28;20508;-60
2021/08/14 10:55:01;;;;;;;45.03;27.45;;;;;;;19.56;68.26;101999.22;5034898;28;20037;-57
2021/08/14 10:57:47;;;;;;;39.78;26.27;;;;;;;19.62;68.67;101994.44;5034867;28;20071;-57
2021/08/14 11:00:25;;;;;;;45.58;27.23;;;;;;;19.63;68.71;101989.75;5034542;28;20049;-55
2021/08/14 11:03:01;;;;;;;44.28;26.70;;;;;;;19.63;68.89;101992.53;5033633;28;20037;-55
2021/08/14 11:05:29;;;;;;;42.97;26.05;;;;;;;19.68;68.64;101992.47;5034322;28;20434;-54
2021/08/14 11:08:00;;;;;;;43.83;25.42;;;;;;;19.68;68.47;101981.41;5034402;28;20052;-56
2021/08/14 11:10:33;;;;;;;36.38;23.05;;;;;;;19.71;68.76;101978.03;5034399;28;20132;-57
2021/08/14 11:13:00;;;;;;;41.67;25.70;;;;;;;19.75;68.93;101984.59;5034737;28;20506;-57
2021/08/14 11:15:38;;;;;;;39.83;24.52;;;;;;;19.78;68.34;101984.81;5034452;28;20056;-55
2021/08/14 11:18:06;;;;;;;41.70;25.33;;;;;;;19.76;68.44;101991.75;5034749;28;20107;-56
2021/08/14 11:20:40;;;;;;;37.15;23.63;;;;;;;19.75;68.10;101987.38;5033967;28;20045;-54
2021/08/14 11:23:22;;;;;;;29.70;17.42;;;;;;;19.76;67.94;101973.22;5033815;28;20149;-57
2021/08/14 11:25:50;;;;;;;32.97;20.55;;;;;;;19.78;68.22;101978.47;5040753;28;20040;-57